Time;durP1;ratioP1;P1;durP2;ratioP2;P2;SDS_P1;SDS_P2;PMS_P1;PMS_P2;Temp;Humidity;BMP_temperature;BMP_pressure;BME280_temperature;BME280_humidity;BME280_pressure;Samples;Min_cycle;Max_cycle;Signal;HPM_P1;HPM_P2
2022/01/07 08:39:37;;;;;;;53.50;25.80;;;3.90;99.90;;;;;;5090499;28;20372;-61
2022/01/07 08:42:03;;;;;;;54.53;27.98;;;4.20;99.90;;;;;;5089723;28;20052;-62
2022/01/07 08:44:29;;;;;;;52.10;25.95;;;;;;;;;;5090046;28;20051;-61
2022/01/07 08:46:55;;;;;;;46.45;26.70;;;3.90;99.90;;;;;;5091024;28;20055;-61
2022/01/07 08:49:21;;;;;;;44.85;25.05;;;4.00;99.90;;;;;;5090808;28;20032;-61
2022/01/07 08:51:46;;;;;;;38.17;24.10;;;4.00;99.90;;;;;;5091093;28;20060;-60
2022/01/07 08:54:12;;;;;;;40.72;25.02;;;4.00;99.90;;;;;;5091185;28;20097;-62
2022/01/07 08:56:38;;;;;;;36.10;23.70;;;4.00;99.90;;;;;;5090861;28;20055;-64
2022/01/07 08:59:04;;;;;;;40.20;23.45;;;4.00;99.90;;;;;;5090905;28;20434;-61
2022/01/07 09:01:29;;;;;;;35.95;21.92;;;4.10;99.90;;;;;;5091715;28;20103;-63
2022/01/07 09:03:56;;;;;;;35.08;22.95;;;4.10;99.90;;;;;;5090857;28;20131;-62
2022/01/07 09:06:21;;;;;;;;;;;4.00;99.90;;;;;;5087356;28;20110;-63
2022/01/07 09:08:47;;;;;;;36.58;21.58;;;4.10;99.90;;;;;;5085289;28;19920;-62
2022/01/07 09:11:13;;;;;;;38.42;22.40;;;4.10;99.90;;;;;;5078467;28;20044;-63
2022/01/07 09:13:39;;;;;;;35.92;21.92;;;4.10;99.90;;;;;;5084201;28;20040;-63
2022/01/07 09:16:04;;;;;;;39.35;22.20;;;4.10;99.90;;;;;;5090789;28;20044;-63
2022/01/07 09:18:32;;;;;;;35.70;22.75;;;4.10;99.90;;;;;;5091042;28;20048;-63
2022/01/07 09:20:58;;;;;;;33.88;22.20;;;4.20;99.90;;;;;;5089226;28;20095;-63
2022/01/07 09:23:23;;;;;;;;;;;4.10;99.90;;;;;;5085141;28;20048;-63
2022/01/07 09:25:49;;;;;;;35.33;21.67;;;4.50;99.90;;;;;;5086824;28;19966;-64
2022/01/07 09:28:16;;;;;;;43.28;22.85;;;4.40;99.90;;;;;;5090865;28;20082;-63
2022/01/07 09:30:41;;;;;;;32.55;16.92;;;4.10;99.90;;;;;;5090314;28;20084;-64
2022/01/07 09:33:07;;;;;;;26.83;15.38;;;4.10;99.90;;;;;;5090348;28;20088;-63
2022/01/07 09:35:33;;;;;;;25.10;12.48;;;4.10;99.90;;;;;;5089221;28;20443;-63
2022/01/07 09:37:59;;;;;;;20.33;10.60;;;4.20;99.90;;;;;;5090028;28;20110;-63
2022/01/07 09:40:24;;;;;;;18.45;9.57;;;4.20;99.90;;;;;;5090207;28;20052;-63
2022/01/07 09:43:02;;;;;;;14.57;8.80;;;4.20;99.90;;;;;;5090635;28;20055;-64
2022/01/07 09:45:29;;;;;;;12.18;7.13;;;4.20;99.90;;;;;;5078463;28;20041;-65
2022/01/07 09:47:56;;;;;;;12.75;6.90;;;4.20;99.90;;;;;;5089971;28;20040;-63
2022/01/07 09:50:26;;;;;;;16.58;7.78;;;4.20;99.90;;;;;;5079807;28;20044;-64
2022/01/07 09:52:52;;;;;;;11.88;7.38;;;4.10;99.90;;;;;;5076296;28;20484;-63
2022/01/07 09:55:19;;;;;;;;;;;4.10;99.90;;;;;;5075427;28;20488;-64
2022/01/07 09:57:44;;;;;;;14.13;7.90;;;4.00;99.90;;;;;;5076115;28;19967;-64
2022/01/07 10:00:11;;;;;;;13.02;7.80;;;4.10;99.90;;;;;;5076042;28;20146;-65
2022/01/07 10:02:37;;;;;;;14.65;8.02;;;4.00;99.90;;;;;;5076092;28;20075;-62
2022/01/07 10:05:16;;;;;;;12.18;7.70;;;4.10;99.90;;;;;;5076797;28;20076;-61
2022/01/07 10:07:43;;;;;;;13.07;6.50;;;4.00;99.90;;;;;;5075501;28;20132;-62
2022/01/07 10:10:14;;;;;;;8.60;5.38;;;4.10;99.90;;;;;;5074936;28;20057;-62
2022/01/07 10:13:03;;;;;;;9.68;5.57;;;4.10;99.90;;;;;;5075665;28;20044;-63
2022/01/07 10:15:31;;;;;;;7.32;4.07;;;4.10;99.90;;;;;;5075758;28;20052;-62
2022/01/07 10:18:03;;;;;;;8.00;3.40;;;4.10;99.90;;;;;;5075490;28;20040;-63
2022/01/07 10:20:46;;;;;;;5.93;2.83;;;4.10;99.90;;;;;;5074968;28;20040;-66
2022/01/07 10:23:13;;;;;;;6.05;2.65;;;4.20;99.90;;;;;;5075823;28;20044;-64
2022/01/07 10:25:45;;;;;;;5.85;2.55;;;4.20;99.90;;;;;;5074524;28;20106;-64
2022/01/07 10:28:16;;;;;;;5.85;2.50;;;4.20;99.90;;;;;;5075689;28;20056;-64
2022/01/07 10:30:48;;;;;;;7.93;3.33;;;4.10;99.90;;;;;;5058226;28;20484;-64
2022/01/07 10:33:29;;;;;;;17.30;9.15;;;4.10;99.90;;;;;;5075721;28;20056;-64
2022/01/07 10:36:13;;;;;;;13.52;7.97;;;4.10;99.90;;;;;;5075325;28;20554;-64
2022/01/07 10:38:54;;;;;;;19.25;14.70;;;4.00;99.90;;;;;;5075308;28;20056;-64
2022/01/07 10:41:21;;;;;;;13.50;6.35;;;4.10;99.90;;;;;;5076077;28;20393;-64
2022/01/07 10:43:48;;;;;;;10.35;5.20;;;4.10;99.90;;;;;;5075973;28;20086;-64
2022/01/07 10:46:27;;;;;;;9.13;4.18;;;4.20;99.90;;;;;;5075938;28;20052;-63
2022/01/07 10:49:00;;;;;;;10.93;4.10;;;4.20;99.90;;;;;;5075567;28;20389;-64
2022/01/07 10:51:28;;;;;;;10.90;4.97;;;4.20;99.90;;;;;;5074145;28;20105;-63
2022/01/07 10:53:56;;;;;;;11.90;5.90;;;4.20;99.90;;;;;;5075166;28;20048;-63
2022/01/07 10:56:24;;;;;;;14.57;5.55;;;4.20;99.90;;;;;;5075032;28;20412;-63
2022/01/07 10:58:55;;;;;;;13.45;5.72;;;4.30;99.90;;;;;;5074561;28;20047;-65
2022/01/07 11:01:20;;;;;;;13.18;6.03;;;4.30;99.90;;;;;;5061623;28;20080;-62
2022/01/07 11:03:55;;;;;;;15.80;6.85;;;4.30;99.90;;;;;;5054718;28;20049;-62
2022/01/07 11:06:22;;;;;;;19.88;7.35;;;4.40;99.90;;;;;;5055766;28;20045;-63
2022/01/07 11:08:49;;;;;;;20.50;8.15;;;4.50;99.90;;;;;;5055008;28;20123;-63
2022/01/07 11:11:15;;;;;;;23.85;13.57;;;4.50;99.90;;;;;;5053567;28;20045;-63
2022/01/07 11:13:42;;;;;;;18.83;10.45;;;4.60;99.90;;;;;;5054823;28;20171;-63
2022/01/07 11:16:08;;;;;;;28.52;13.32;;;4.60;99.90;;;;;;5054767;28;20052;-65
2022/01/07 11:18:38;;;;;;;24.95;15.70;;;4.70;99.90;;;;;;5054143;28;20045;-62
2022/01/07 11:21:09;;;;;;;25.33;12.70;;;4.80;99.90;;;;;;5055168;28;20128;-62
2022/01/07 11:24:30;;;;;;;24.52;13.88;;;4.80;99.90;;;;;;5054639;28;20044;-63
2022/01/07 11:27:07;;;;;;;31.58;18.95;;;4.90;99.90;;;;;;5055507;28;20053;-64
2022/01/07 11:30:05;;;;;;;29.92;15.85;;;5.00;99.90;;;;;;5054704;28;20040;-64
2022/01/07 11:32:47;;;;;;;23.13;13.40;;;5.00;99.90;;;;;;5033254;28;20049;-64
2022/01/07 11:35:19;;;;;;;25.75;14.40;;;5.00;99.90;;;;;;5033327;28;20048;-61
2022/01/07 11:37:51;;;;;;;24.63;14.30;;;5.00;99.90;;;;;;5033989;28;20072;-63
2022/01/07 11:40:29;;;;;;;29.48;12.18;;;5.00;99.90;;;;;;5034420;28;20060;-64
2022/01/07 11:43:04;;;;;;;26.10;12.00;;;5.00;99.90;;;;;;5033154;28;20063;-63
2022/01/07 11:45:31;;;;;;;25.23;13.50;;;5.00;99.90;;;;;;5033354;28;20110;-62
2022/01/07 11:48:14;;;;;;;24.00;12.68;;;5.10;99.90;;;;;;5033277;28;20064;-62
2022/01/07 11:50:55;;;;;;;23.35;9.80;;;5.10;99.90;;;;;;5034836;28;20053;-62
2022/01/07 11:53:28;;;;;;;21.98;9.82;;;5.10;99.90;;;;;;5033233;28;20133;-62
2022/01/07 11:56:02;;;;;;;20.80;8.93;;;5.20;99.90;;;;;;5034858;28;20097;-63
2022/01/07 11:58:46;;;;;;;19.33;9.15;;;5.30;99.90;;;;;;5033657;28;20046;-65
2022/01/07 12:01:35;;;;;;;19.88;8.48;;;5.30;99.90;;;;;;5033710;28;20052;-62
2022/01/07 12:04:27;;;;;;;19.63;7.70;;;5.40;99.90;;;;;;5027692;28;20068;-64
2022/01/07 12:06:55;;;;;;;20.27;6.47;;;5.40;99.90;;;;;;5034063;28;20120;-63
2022/01/07 12:09:28;;;;;;;13.40;5.55;;;5.40;99.90;;;;;;5033473;28;20057;-63
2022/01/07 12:12:00;;;;;;;14.68;4.90;;;5.40;99.90;;;;;;5033948;28;20045;-63
2022/01/07 12:14:43;;;;;;;10.68;4.38;;;5.50;99.90;;;;;;5034289;28;20053;-63
2022/01/07 12:17:13;;;;;;;11.52;3.55;;;5.40;99.90;;;;;;5033402;28;20080;-64
2022/01/07 12:19:48;;;;;;;9.15;3.17;;;5.50;99.90;;;;;;5033835;28;20118;-64
2022/01/07 12:22:16;;;;;;;9.90;2.90;;;5.30;99.90;;;;;;5033806;28;20058;-62
2022/01/07 12:24:43;;;;;;;10.52;3.72;;;5.20;99.90;;;;;;5037100;28;20136;-63
2022/01/07 12:27:27;;;;;;;7.68;3.22;;;5.10;99.90;;;;;;5034187;28;20052;-63
2022/01/07 12:29:55;;;;;;;10.23;2.60;;;5.00;99.90;;;;;;5040751;28;20045;-63
2022/01/07 12:32:32;;;;;;;10.38;2.53;;;5.10;99.90;;;;;;5052557;28;20049;-63
2022/01/07 12:34:58;;;;;;;11.98;3.78;;;5.00;99.90;;;;;;5054282;28;20393;-63
2022/01/07 12:37:25;;;;;;;9.85;2.88;;;5.00;99.90;;;;;;5053361;28;20041;-62
2022/01/07 12:39:54;;;;;;;15.95;2.97;;;5.00;99.90;;;;;;5053449;28;20048;-63
2022/01/07 12:42:20;;;;;;;12.88;2.65;;;4.90;99.90;;;;;;5042723;28;20440;-63
2022/01/07 12:44:52;;;;;;;10.50;3.17;;;5.00;99.90;;;;;;5033495;28;20095;-63
2022/01/07 12:47:20;;;;;;;20.13;8.10;;;4.90;99.90;;;;;;5032429;28;20145;-62
2022/01/07 12:49:48;;;;;;;16.30;3.30;;;4.90;99.90;;;;;;5033432;28;20092;-63
2022/01/07 12:52:21;;;;;;;9.43;2.30;;;4.90;99.90;;;;;;5033443;28;20104;-64
2022/01/07 12:55:10;;;;;;;10.00;2.25;;;4.90;99.90;;;;;;5033496;28;20115;-63
2022/01/07 12:57:42;;;;;;;16.40;3.03;;;4.90;99.90;;;;;;5033176;28;20049;-63
2022/01/07 13:00:14;;;;;;;14.15;2.60;;;4.90;99.90;;;;;;5032515;28;20052;-65
2022/01/07 13:02:48;;;;;;;12.80;3.58;;;5.00;99.90;;;;;;5033563;28;20053;-64
2022/01/07 13:05:14;;;;;;;17.45;6.75;;;5.00;99.90;;;;;;5033002;28;20481;-63
2022/01/07 13:07:45;;;;;;;15.27;3.08;;;5.10;99.90;;;;;;5033111;28;20486;-63
2022/01/07 13:10:11;;;;;;;12.95;2.80;;;5.10;99.90;;;;;;5033502;28;20057;-62
2022/01/07 13:12:38;;;;;;;10.43;2.92;;;5.10;99.90;;;;;;5031922;28;20046;-63
2022/01/07 13:15:07;;;;;;;14.05;3.03;;;5.20;99.90;;;;;;5033233;28;20115;-63
2022/01/07 13:17:33;;;;;;;17.45;4.03;;;5.10;99.90;;;;;;5041027;28;20087;-63
2022/01/07 13:19:59;;;;;;;14.10;3.10;;;5.10;99.90;;;;;;5042726;28;20070;-64
2022/01/07 13:22:26;;;;;;;10.27;3.05;;;5.10;99.90;;;;;;5041584;28;20061;-64
2022/01/07 13:24:53;;;;;;;11.75;3.10;;;5.20;99.90;;;;;;5042941;28;20064;-64
2022/01/07 13:27:19;;;;;;;10.10;2.58;;;5.20;99.90;;;;;;5046449;28;20084;-62
2022/01/07 13:29:49;;;;;;;13.55;4.20;;;5.20;99.90;;;;;;5047160;28;20080;-62
2022/01/07 13:32:22;;;;;;;13.80;2.83;;;5.30;99.90;;;;;;5045783;28;20448;-63
2022/01/07 13:34:48;;;;;;;14.68;2.92;;;5.30;99.90;;;;;;5044832;28;20512;-63
2022/01/07 13:37:19;;;;;;;12.82;2.70;;;5.30;99.90;;;;;;5046876;28;20116;-63
2022/01/07 13:39:50;;;;;;;15.50;3.00;;;5.20;99.90;;;;;;5050002;28;20488;-62
2022/01/07 13:42:25;;;;;;;15.20;7.82;;;5.20;99.90;;;;;;5055583;28;20060;-62
2022/01/07 13:44:56;;;;;;;12.63;4.93;;;5.30;99.90;;;;;;5057198;28;20424;-63
2022/01/07 13:47:34;;;;;;;14.15;3.85;;;5.30;99.90;;;;;;5055460;28;20049;-63
2022/01/07 13:50:10;;;;;;;14.25;3.83;;;5.30;99.90;;;;;;5056137;28;20045;-63
2022/01/07 13:52:37;;;;;;;10.55;3.88;;;5.30;99.90;;;;;;5056137;28;20049;-63
2022/01/07 13:55:04;;;;;;;12.95;4.43;;;5.30;99.90;;;;;;5055144;28;20461;-63
2022/01/07 13:57:31;;;;;;;12.95;2.95;;;5.30;99.90;;;;;;5055811;28;20103;-63
2022/01/07 13:59:58;;;;;;;12.25;2.80;;;5.40;99.90;;;;;;5056541;28;20110;-63
2022/01/07 14:02:31;;;;;;;15.30;2.88;;;5.30;99.90;;;;;;5055812;28;20078;-62
2022/01/07 14:04:59;;;;;;;10.75;2.67;;;5.30;99.90;;;;;;5056193;28;20052;-63
2022/01/07 14:07:37;;;;;;;16.15;4.75;;;5.30;99.90;;;;;;5055285;28;20437;-63
2022/01/07 14:10:05;;;;;;;26.83;7.20;;;5.30;99.90;;;;;;5056068;28;20135;-63
2022/01/07 14:12:31;;;;;;;24.85;7.38;;;5.30;99.90;;;;;;5056069;28;20526;-63
2022/01/07 14:15:25;;;;;;;12.13;3.05;;;5.30;99.90;;;;;;5055997;28;20056;-63
2022/01/07 14:18:09;;;;;;;10.85;2.83;;;5.20;99.90;;;;;;5051954;28;20068;-63
2022/01/07 14:20:47;;;;;;;12.20;2.35;;;5.20;99.90;;;;;;5034770;28;20049;-63
2022/01/07 14:23:21;;;;;;;14.00;2.72;;;5.20;99.90;;;;;;5036003;28;20049;-63
2022/01/07 14:25:48;;;;;;;15.25;4.38;;;5.20;99.90;;;;;;5035921;28;20053;-62
2022/01/07 14:28:15;;;;;;;17.63;3.35;;;5.20;99.90;;;;;;5035629;28;20470;-63
2022/01/07 14:30:42;;;;;;;15.52;3.20;;;5.10;99.90;;;;;;5035829;28;20042;-63
2022/01/07 14:33:08;;;;;;;12.18;3.28;;;5.20;99.90;;;;;;5035623;28;20056;-63
2022/01/07 14:35:34;;;;;;;12.40;2.25;;;5.10;99.90;;;;;;5035814;28;20053;-64
2022/01/07 14:37:59;;;;;;;10.77;2.13;;;5.10;99.90;;;;;;5033927;28;20061;-63
2022/01/07 14:40:25;;;;;;;11.27;2.53;;;5.00;99.90;;;;;;5034968;28;20067;-63
2022/01/07 14:42:51;;;;;;;14.57;2.88;;;5.00;99.90;;;;;;5036110;28;20374;-64
2022/01/07 14:45:18;;;;;;;12.35;2.35;;;5.00;99.90;;;;;;5035519;28;20386;-64
2022/01/07 14:47:44;;;;;;;15.75;2.63;;;4.90;99.90;;;;;;5035756;28;20046;-63
2022/01/07 14:50:11;;;;;;;15.00;2.67;;;4.90;99.90;;;;;;5035471;28;20440;-64
2022/01/07 14:52:38;;;;;;;12.10;2.20;;;4.90;99.90;;;;;;5035384;28;20110;-64
2022/01/07 14:55:04;;;;;;;8.10;1.75;;;4.90;99.90;;;;;;5035290;28;20080;-64
2022/01/07 14:57:31;;;;;;;;;;;4.80;99.90;;;;;;5035377;28;20079;-65
2022/01/07 14:59:57;;;;;;;10.55;2.20;;;4.70;99.90;;;;;;5035303;28;19925;-63
2022/01/07 15:02:23;;;;;;;14.25;2.75;;;4.70;99.90;;;;;;5035325;28;20552;-64
2022/01/07 15:04:48;;;;;;;45.13;23.73;;;4.70;99.90;;;;;;5035264;28;20053;-65
2022/01/07 15:07:14;;;;;;;22.27;7.15;;;4.60;99.90;;;;;;5035283;28;20342;-64
2022/01/07 15:09:40;;;;;;;17.25;6.22;;;4.60;99.90;;;;;;5035098;28;20481;-63
2022/01/07 15:12:07;;;;;;;12.60;4.90;;;4.60;99.90;;;;;;5034657;28;20505;-63
2022/01/07 15:14:33;;;;;;;10.10;4.57;;;4.50;99.90;;;;;;5035048;28;20052;-64
2022/01/07 15:16:58;;;;;;;12.02;2.80;;;4.50;99.90;;;;;;5035308;28;20053;-62
2022/01/07 15:19:24;;;;;;;10.73;2.45;;;4.40;99.90;;;;;;5034688;28;20053;-62
2022/01/07 15:21:52;;;;;;;15.00;3.60;;;4.50;99.90;;;;;;5034828;28;20045;-63
2022/01/07 15:24:20;;;;;;;14.65;2.40;;;4.40;99.90;;;;;;5034749;28;20053;-65
2022/01/07 15:26:47;;;;;;;13.82;3.83;;;4.40;99.90;;;;;;5035123;28;20439;-62
2022/01/07 15:29:14;;;;;;;15.85;3.03;;;4.40;99.90;;;;;;5017083;28;20053;-63
2022/01/07 15:31:40;;;;;;;14.07;3.28;;;4.40;99.90;;;;;;5034387;28;20056;-63
2022/01/07 15:34:08;;;;;;;12.27;3.00;;;4.30;99.90;;;;;;5034974;28;20107;-63
2022/01/07 15:36:35;;;;;;;10.82;2.50;;;4.40;99.90;;;;;;5034470;28;20103;-63
2022/01/07 15:39:03;;;;;;;11.85;2.38;;;4.50;99.90;;;;;;5034503;28;20065;-62
2022/01/07 15:41:29;;;;;;;11.25;2.70;;;4.40;99.90;;;;;;5034444;28;20057;-63
2022/01/07 15:43:55;;;;;;;13.90;2.33;;;4.40;99.90;;;;;;5034706;28;20394;-62
2022/01/07 15:46:21;;;;;;;9.00;2.28;;;4.40;99.90;;;;;;5042170;28;20087;-63
2022/01/07 15:48:47;;;;;;;20.42;2.28;;;4.40;99.90;;;;;;5044047;28;20112;-62
2022/01/07 15:51:12;;;;;;;8.77;2.40;;;4.30;99.90;;;;;;5035668;28;20375;-63
2022/01/07 15:53:38;;;;;;;8.43;2.03;;;4.30;99.90;;;;;;5034291;28;20053;-63
2022/01/07 15:56:05;;;;;;;13.88;2.50;;;4.20;99.90;;;;;;5034245;28;20398;-63
2022/01/07 15:58:31;;;;;;;11.07;2.20;;;4.20;99.90;;;;;;5034166;28;20046;-63
2022/01/07 16:00:57;;;;;;;13.85;2.38;;;4.10;99.90;;;;;;5033325;28;20056;-63
2022/01/07 16:03:23;;;;;;;11.00;2.00;;;4.20;99.90;;;;;;5039120;28;20041;-63
2022/01/07 16:05:49;;;;;;;10.07;2.42;;;4.10;99.90;;;;;;5043457;28;20405;-63
2022/01/07 16:08:15;;;;;;;8.82;2.35;;;4.00;99.90;;;;;;5042992;28;20029;-62
2022/01/07 16:10:41;;;;;;;9.65;2.05;;;4.00;99.90;;;;;;5043522;28;20049;-61
2022/01/07 16:13:08;;;;;;;9.25;2.55;;;4.00;99.90;;;;;;5042200;28;20116;-62
2022/01/07 16:15:33;;;;;;;14.02;2.58;;;3.90;99.90;;;;;;5042868;28;20523;-62
2022/01/07 16:17:59;;;;;;;13.35;2.72;;;3.90;99.90;;;;;;5042317;28;20069;-61
2022/01/07 16:20:28;;;;;;;10.75;2.20;;;3.90;99.90;;;;;;5043995;28;20049;-62
2022/01/07 16:22:54;;;;;;;13.73;2.50;;;3.90;99.90;;;;;;5043838;28;20077;-61
2022/01/07 16:25:21;;;;;;;13.02;2.90;;;3.90;99.90;;;;;;5042207;28;20073;-62
2022/01/07 16:27:47;;;;;;;12.00;2.83;;;3.80;99.90;;;;;;5043651;28;20511;-62
2022/01/07 16:30:15;;;;;;;14.63;4.07;;;3.80;99.90;;;;;;5043615;28;20077;-62
2022/01/07 16:32:42;;;;;;;19.23;5.25;;;3.70;99.90;;;;;;5042093;28;20116;-62
2022/01/07 16:35:08;;;;;;;17.73;4.25;;;3.70;99.90;;;;;;5042507;28;20366;-62
2022/01/07 16:37:42;;;;;;;12.40;3.10;;;3.70;99.90;;;;;;5043581;28;20053;-63
2022/01/07 16:40:12;;;;;;;11.55;3.70;;;3.70;99.90;;;;;;5042828;28;20425;-65
2022/01/07 16:42:39;;;;;;;35.88;11.40;;;3.70;99.90;;;;;;5043054;28;20087;-63
2022/01/07 16:45:06;;;;;;;41.47;14.35;;;3.70;99.90;;;;;;5041377;28;20500;-62
2022/01/07 16:47:32;;;;;;;33.10;13.15;;;3.60;99.90;;;;;;5041663;28;20492;-61
2022/01/07 16:50:01;;;;;;;;;;;3.60;99.90;;;;;;5044393;28;20052;-63
2022/01/07 16:52:28;;;;;;;16.58;6.40;;;3.60;99.90;;;;;;5042450;28;19921;-61
2022/01/07 16:54:58;;;;;;;20.88;10.57;;;3.60;99.90;;;;;;5042483;28;20053;-61
2022/01/07 16:57:24;;;;;;;21.83;8.40;;;3.60;99.90;;;;;;5035462;28;20045;-62
2022/01/07 16:59:50;;;;;;;21.55;7.88;;;3.60;99.90;;;;;;5044199;28;20119;-62
2022/01/07 17:02:16;;;;;;;15.60;6.43;;;3.60;99.90;;;;;;5046749;28;20045;-61
2022/01/07 17:04:42;;;;;;;19.60;7.35;;;3.60;99.90;;;;;;5045769;28;20045;-62
2022/01/07 17:07:08;;;;;;;16.65;5.00;;;3.60;99.90;;;;;;5046835;28;20480;-61
2022/01/07 17:09:33;;;;;;;18.48;5.95;;;3.50;99.90;;;;;;5055845;28;20041;-61
2022/01/07 17:11:59;;;;;;;19.02;6.07;;;3.50;99.90;;;;;;5057497;28;20493;-62
2022/01/07 17:14:25;;;;;;;11.18;5.22;;;3.50;99.90;;;;;;5055582;28;20473;-62
2022/01/07 17:16:51;;;;;;;16.77;3.33;;;3.50;99.90;;;;;;5045940;28;20045;-62
2022/01/07 17:19:18;;;;;;;13.27;3.25;;;3.50;99.90;;;;;;5043921;28;20041;-62
2022/01/07 17:21:43;;;;;;;12.02;4.50;;;3.50;99.90;;;;;;5037058;28;20058;-62
2022/01/07 17:24:09;;;;;;;18.55;10.63;;;3.50;99.90;;;;;;5047466;28;20047;-63
2022/01/07 17:26:35;;;;;;;14.05;8.35;;;3.40;99.90;;;;;;5046080;28;20049;-62
2022/01/07 17:29:01;;;;;;;14.50;6.55;;;3.40;99.90;;;;;;5046065;28;20070;-62
2022/01/07 17:31:26;;;;;;;16.45;5.78;;;3.40;99.90;;;;;;5047438;28;20045;-61
2022/01/07 17:33:52;;;;;;;17.70;9.18;;;3.40;99.90;;;;;;5045488;28;20051;-61
2022/01/07 17:36:18;;;;;;;14.52;4.47;;;3.30;99.90;;;;;;5045401;28;20049;-61
2022/01/07 17:38:44;;;;;;;;;;;3.40;99.90;;;;;;5047110;28;20099;-62
2022/01/07 17:41:10;;;;;;;12.23;6.22;;;3.50;99.90;;;;;;5045126;28;19925;-62
2022/01/07 17:43:36;;;;;;;8.50;2.40;;;3.40;99.90;;;;;;5046687;28;20041;-61
2022/01/07 17:46:02;;;;;;;;;;;3.40;99.90;;;;;;5047037;28;20048;-62
2022/01/07 17:48:29;;;;;;;13.35;3.08;;;3.40;99.90;;;;;;5044978;28;19921;-61
2022/01/07 17:50:58;;;;;;;18.90;3.53;;;3.40;99.90;;;;;;5043518;28;20132;-61
2022/01/07 17:53:24;;;;;;;14.25;3.53;;;3.40;99.90;;;;;;5036032;28;20053;-61
2022/01/07 17:55:50;;;;;;;11.48;3.70;;;3.40;99.90;;;;;;5038830;28;20037;-62
2022/01/07 17:58:18;;;;;;;16.25;4.00;;;3.30;99.90;;;;;;5045901;28;20041;-60
2022/01/07 18:00:44;;;;;;;55.50;36.20;;;3.30;99.90;;;;;;5046441;28;20520;-61
2022/01/07 18:03:10;;;;;;;13.90;6.65;;;3.30;99.90;;;;;;5047501;28;20142;-62
2022/01/07 18:05:36;;;;;;;10.98;3.03;;;3.20;99.90;;;;;;5046161;28;20393;-62
2022/01/07 18:08:02;;;;;;;10.52;2.70;;;3.20;99.90;;;;;;5047677;28;20087;-63
2022/01/07 18:10:27;;;;;;;;;;;3.20;99.90;;;;;;5039775;28;20482;-61
2022/01/07 18:12:53;;;;;;;8.93;3.40;;;3.10;99.90;;;;;;5036143;28;20014;-61
2022/01/07 18:15:19;;;;;;;16.23;6.18;;;3.10;99.90;;;;;;5036061;28;20057;-61
2022/01/07 18:17:45;;;;;;;27.45;11.98;;;3.10;99.90;;;;;;5036105;28;20076;-61
2022/01/07 18:20:12;;;;;;;15.85;5.00;;;3.10;99.90;;;;;;5036333;28;20524;-62
2022/01/07 18:22:38;;;;;;;16.40;4.32;;;3.00;99.90;;;;;;5035944;28;20458;-62
2022/01/07 18:26:18;;;;;;;14.98;3.05;;;3.00;99.90;;;;;;5039985;28;20045;-61
2022/01/07 18:28:44;;;;;;;11.25;3.10;;;3.10;99.90;;;;;;5039196;28;20041;-67
2022/01/07 18:31:10;;;;;;;6.72;2.50;;;3.10;99.90;;;;;;5044309;28;20038;-63
2022/01/07 18:33:36;;;;;;;7.53;2.10;;;3.10;99.90;;;;;;5044492;28;20500;-62
2022/01/07 18:36:03;;;;;;;7.80;2.00;;;3.10;99.90;;;;;;5035878;28;20492;-62
2022/01/07 18:38:31;;;;;;;7.65;2.20;;;3.00;99.90;;;;;;5035580;28;20061;-63
2022/01/07 18:40:58;;;;;;;8.30;2.28;;;3.00;99.90;;;;;;5035579;28;20089;-61
2022/01/07 18:43:24;;;;;;;6.40;2.42;;;2.90;99.90;;;;;;5045840;28;20392;-62
2022/01/07 18:45:50;;;;;;;122.68;68.88;;;2.90;99.90;;;;;;5052196;28;20041;-63
2022/01/07 18:48:16;;;;;;;8.02;3.55;;;2.80;99.90;;;;;;5044122;28;20447;-62
2022/01/07 18:50:42;;;;;;;5.80;2.00;;;2.70;99.90;;;;;;5044024;28;20045;-63
2022/01/07 18:53:08;;;;;;;14.20;6.10;;;2.70;99.90;;;;;;5046695;28;20098;-62
2022/01/07 18:55:36;;;;;;;8.60;3.13;;;2.70;99.90;;;;;;5049633;28;20046;-63
2022/01/07 18:58:03;;;;;;;7.78;3.10;;;2.70;99.90;;;;;;5039267;28;20489;-62
2022/01/07 19:00:29;;;;;;;9.00;3.38;;;2.60;99.90;;;;;;5044705;28;20049;-63
2022/01/07 19:02:55;;;;;;;10.45;4.55;;;2.60;99.90;;;;;;5044098;28;20055;-62
2022/01/07 19:05:20;;;;;;;12.00;6.30;;;2.60;99.90;;;;;;5045668;28;20056;-63
2022/01/07 19:07:47;;;;;;;13.95;7.13;;;2.60;99.90;;;;;;5044139;28;20489;-62
2022/01/07 19:10:14;;;;;;;17.48;10.10;;;2.50;99.90;;;;;;5049589;28;20072;-62
2022/01/07 19:12:41;;;;;;;17.45;7.43;;;2.50;99.90;;;;;;5035013;28;20061;-62
2022/01/07 19:15:07;;;;;;;12.63;5.55;;;2.50;99.90;;;;;;5034983;28;20049;-63
2022/01/07 19:17:34;;;;;;;15.55;6.72;;;2.50;99.90;;;;;;5033898;28;20056;-63
2022/01/07 19:19:59;;;;;;;9.70;3.35;;;2.50;99.90;;;;;;5041652;28;20076;-63
2022/01/07 19:22:26;;;;;;;14.15;4.45;;;2.40;99.90;;;;;;5039303;28;20053;-63
2022/01/07 19:24:52;;;;;;;10.50;3.33;;;2.40;99.90;;;;;;5034805;28;20045;-63
2022/01/07 19:27:18;;;;;;;10.90;5.25;;;2.40;99.90;;;;;;5053531;28;20041;-63
2022/01/07 19:29:44;;;;;;;6.30;2.70;;;2.40;99.90;;;;;;5054642;28;20043;-63
2022/01/07 19:32:09;;;;;;;14.73;4.68;;;2.40;99.90;;;;;;5053650;28;20170;-64
2022/01/07 19:34:36;;;;;;;11.35;3.20;;;2.40;99.90;;;;;;5054557;28;20065;-63
2022/01/07 19:37:02;;;;;;;10.80;4.35;;;2.50;99.90;;;;;;5053463;28;20059;-64
2022/01/07 19:39:28;;;;;;;9.13;3.03;;;2.50;99.90;;;;;;5054295;28;20052;-65
2022/01/07 19:41:54;;;;;;;12.68;5.03;;;2.50;99.90;;;;;;5054392;28;20140;-63
2022/01/07 19:44:20;;;;;;;23.65;10.02;;;2.50;99.90;;;;;;5048254;28;20064;-63
2022/01/07 19:46:45;;;;;;;20.70;8.23;;;2.50;99.90;;;;;;5043442;28;20449;-63
2022/01/07 19:49:11;;;;;;;11.63;5.35;;;2.50;99.90;;;;;;5042491;28;20367;-62
2022/01/07 19:51:37;;;;;;;12.43;4.55;;;2.50;99.90;;;;;;5039746;28;20046;-63
2022/01/07 19:54:04;;;;;;;17.73;9.43;;;2.40;99.90;;;;;;5043717;28;20044;-63
2022/01/07 19:56:31;;;;;;;12.57;3.78;;;2.40;99.90;;;;;;5039443;28;20053;-63
2022/01/07 19:58:57;;;;;;;13.13;4.18;;;2.40;99.90;;;;;;5034036;28;20152;-63
2022/01/07 20:01:23;;;;;;;10.20;3.40;;;2.50;99.90;;;;;;5034647;28;20049;-62
2022/01/07 20:03:49;;;;;;;7.85;3.03;;;2.50;99.90;;;;;;5034915;28;20132;-63
2022/01/07 20:06:15;;;;;;;9.20;2.83;;;2.50;99.90;;;;;;5034089;28;20046;-63
2022/01/07 20:08:41;;;;;;;9.82;3.25;;;2.50;99.90;;;;;;5034009;28;20089;-63
2022/01/07 20:11:08;;;;;;;10.88;3.28;;;2.60;99.90;;;;;;5032838;28;20083;-63
2022/01/07 20:13:34;;;;;;;7.85;3.00;;;2.50;99.90;;;;;;5033785;28;20110;-63
2022/01/07 20:16:00;;;;;;;7.95;3.28;;;2.50;99.90;;;;;;5033929;28;20049;-63
2022/01/07 20:18:25;;;;;;;6.10;2.35;;;2.50;99.90;;;;;;5033676;28;20049;-63
2022/01/07 20:20:51;;;;;;;11.20;2.67;;;2.50;99.90;;;;;;5033960;28;20540;-63
2022/01/07 20:23:21;;;;;;;11.88;2.42;;;2.50;99.90;;;;;;5033806;28;20379;-62
2022/01/07 20:25:47;;;;;;;9.52;2.40;;;2.40;99.90;;;;;;5033079;28;20052;-62
2022/01/07 20:28:13;;;;;;;10.55;2.35;;;2.40;99.90;;;;;;5033645;28;20045;-62
2022/01/07 20:30:39;;;;;;;9.00;2.30;;;2.40;99.90;;;;;;5034070;28;20079;-63
2022/01/07 20:33:04;;;;;;;19.85;8.88;;;2.30;99.90;;;;;;5033661;28;20536;-62
2022/01/07 20:35:30;;;;;;;15.65;8.57;;;2.40;99.90;;;;;;5032439;28;20464;-62
2022/01/07 20:37:56;;;;;;;15.85;9.63;;;2.40;99.90;;;;;;5033539;28;20045;-63
2022/01/07 20:40:23;;;;;;;11.35;4.28;;;2.30;99.90;;;;;;5033933;28;20068;-62
2022/01/07 20:42:49;;;;;;;10.48;4.40;;;2.30;99.90;;;;;;5037092;28;20424;-63
2022/01/07 20:45:16;;;;;;;12.65;6.78;;;2.30;99.90;;;;;;5043291;28;20057;-63
2022/01/07 20:47:42;;;;;;;13.15;5.22;;;2.20;99.90;;;;;;5043732;28;20049;-63
2022/01/07 20:50:09;;;;;;;7.10;3.13;;;2.20;99.90;;;;;;5041986;28;20041;-62
2022/01/07 20:52:35;;;;;;;10.32;3.25;;;2.20;99.90;;;;;;5042179;28;20496;-63
2022/01/07 20:55:02;;;;;;;;;;;2.10;99.90;;;;;;5044212;28;20072;-63
2022/01/07 20:57:27;;;;;;;8.82;2.67;;;2.10;99.90;;;;;;5040471;28;19935;-63
2022/01/07 20:59:53;;;;;;;9.38;2.83;;;2.10;99.90;;;;;;5042970;28;20044;-63
2022/01/07 21:02:19;;;;;;;10.00;5.00;;;2.10;99.90;;;;;;5043851;28;20485;-64
2022/01/07 21:04:45;;;;;;;10.13;2.60;;;2.10;99.90;;;;;;5041831;28;20048;-63
2022/01/07 21:07:11;;;;;;;7.13;2.65;;;2.10;99.90;;;;;;5042149;28;20362;-63
2022/01/07 21:09:36;;;;;;;7.55;2.65;;;2.00;99.90;;;;;;5043410;28;20045;-63
2022/01/07 21:12:03;;;;;;;7.35;2.88;;;2.00;99.90;;;;;;5042015;28;20396;-63
2022/01/07 21:14:28;;;;;;;5.90;2.70;;;2.10;99.90;;;;;;5043443;28;20053;-64
2022/01/07 21:16:54;;;;;;;8.52;3.05;;;2.10;99.90;;;;;;5042941;28;20049;-64
2022/01/07 21:19:19;;;;;;;5.32;2.00;;;2.10;99.90;;;;;;5041780;28;20123;-64
2022/01/07 21:21:45;;;;;;;6.82;2.10;;;2.20;99.90;;;;;;5047849;28;20049;-63
2022/01/07 21:24:11;;;;;;;24.38;15.98;;;2.20;99.90;;;;;;5042576;28;20053;-63
2022/01/07 21:26:38;;;;;;;10.20;3.20;;;2.20;99.90;;;;;;5050692;28;20045;-63
2022/01/07 21:29:04;;;;;;;8.13;2.30;;;2.20;99.90;;;;;;5052603;28;20048;-66
